Upper Musquodoboit, Canada
Current Conditions -  °F | °C
As of 8:00 AM on Tuesday 21 Oct 2014 (Local Time) from CYHZ Reporting Station
Scattered Clouds Scattered Clouds  
Wind Chill: 34°   Ceiling: Unl
Heat Index: 37°   Visibility: 15mi
Dew Point: 36°   Wind: 5mph
Humidity: 93%   Direction: 220°SW
Pressure: 30.1"   Gusts: NA
Location:  45.13°N, 62.95°W
Report Text: CYHZ 211100Z 22004KT 15SM FEW100 SCT250 03/02 A3010 RMK AC1CI2 SLP196
Loading
Personal Weather Stations






























Interactive Weather Map
Tropical Storm Tracking
New forecast layout! Learn more

10-Day Weather Forecast

Advertisements
Track Severe Weather on mobile